sensor_id;sensor_type;location;lat;lon;timestamp;P1;durP1;ratioP1;P2;durP2;ratioP2
20173;SDS011;10246;50.620;7.232;2022-10-22T00:01:19;6.87;;;3.90;;
20173;SDS011;10246;50.620;7.232;2022-10-22T00:03:46;5.10;;;3.87;;
20173;SDS011;10246;50.620;7.232;2022-10-22T00:06:13;5.27;;;3.80;;
20173;SDS011;10246;50.620;7.232;2022-10-22T00:08:40;7.27;;;4.40;;
20173;SDS011;10246;50.620;7.232;2022-10-22T00:11:09;11.57;;;3.87;;
20173;SDS011;10246;50.620;7.232;2022-10-22T00:13:37;4.50;;;3.80;;
20173;SDS011;10246;50.620;7.232;2022-10-22T00:16:03;9.87;;;4.30;;
20173;SDS011;10246;50.620;7.232;2022-10-22T00:18:31;6.53;;;3.83;;
20173;SDS011;10246;50.620;7.232;2022-10-22T00:20:58;7.13;;;4.10;;
20173;SDS011;10246;50.620;7.232;2022-10-22T00:23:24;5.57;;;3.57;;
20173;SDS011;10246;50.620;7.232;2022-10-22T00:25:51;10.60;;;5.00;;
20173;SDS011;10246;50.620;7.232;2022-10-22T00:28:20;8.83;;;4.67;;
20173;SDS011;10246;50.620;7.232;2022-10-22T00:30:47;5.73;;;3.90;;
20173;SDS011;10246;50.620;7.232;2022-10-22T00:33:13;11.20;;;4.43;;
20173;SDS011;10246;50.620;7.232;2022-10-22T00:35:40;6.57;;;4.03;;
20173;SDS011;10246;50.620;7.232;2022-10-22T00:38:08;7.43;;;4.53;;
20173;SDS011;10246;50.620;7.232;2022-10-22T00:40:35;8.60;;;4.20;;
20173;SDS011;10246;50.620;7.232;2022-10-22T00:43:02;7.90;;;4.13;;
20173;SDS011;10246;50.620;7.232;2022-10-22T00:45:30;10.67;;;4.77;;
20173;SDS011;10246;50.620;7.232;2022-10-22T00:47:58;7.87;;;4.37;;
20173;SDS011;10246;50.620;7.232;2022-10-22T00:50:29;7.37;;;4.60;;
20173;SDS011;10246;50.620;7.232;2022-10-22T00:52:59;6.03;;;4.10;;
20173;SDS011;10246;50.620;7.232;2022-10-22T00:55:27;8.30;;;4.93;;
20173;SDS011;10246;50.620;7.232;2022-10-22T00:57:55;7.07;;;4.40;;
20173;SDS011;10246;50.620;7.232;2022-10-22T01:00:23;6.87;;;4.40;;
20173;SDS011;10246;50.620;7.232;2022-10-22T01:02:51;7.47;;;4.40;;
20173;SDS011;10246;50.620;7.232;2022-10-22T01:05:19;9.93;;;4.50;;
20173;SDS011;10246;50.620;7.232;2022-10-22T01:07:47;7.40;;;4.60;;
20173;SDS011;10246;50.620;7.232;2022-10-22T01:10:27;8.17;;;4.33;;
20173;SDS011;10246;50.620;7.232;2022-10-22T01:13:14;8.53;;;3.97;;
20173;SDS011;10246;50.620;7.232;2022-10-22T01:15:52;9.97;;;4.60;;
20173;SDS011;10246;50.620;7.232;2022-10-22T01:18:27;6.47;;;4.37;;
20173;SDS011;10246;50.620;7.232;2022-10-22T01:21:02;5.17;;;3.93;;
20173;SDS011;10246;50.620;7.232;2022-10-22T01:26:41;5.40;;;4.00;;
20173;SDS011;10246;50.620;7.232;2022-10-22T01:29:21;7.37;;;3.50;;
20173;SDS011;10246;50.620;7.232;2022-10-22T01:31:52;9.47;;;3.80;;
20173;SDS011;10246;50.620;7.232;2022-10-22T01:34:21;5.83;;;3.67;;
20173;SDS011;10246;50.620;7.232;2022-10-22T01:36:50;6.57;;;3.70;;
20173;SDS011;10246;50.620;7.232;2022-10-22T01:39:19;6.60;;;4.00;;
20173;SDS011;10246;50.620;7.232;2022-10-22T01:41:47;7.40;;;5.00;;
20173;SDS011;10246;50.620;7.232;2022-10-22T01:44:25;10.33;;;5.13;;
20173;SDS011;10246;50.620;7.232;2022-10-22T01:46:55;14.70;;;5.13;;
20173;SDS011;10246;50.620;7.232;2022-10-22T01:49:32;9.60;;;5.03;;
20173;SDS011;10246;50.620;7.232;2022-10-22T01:52:11;6.67;;;4.57;;
20173;SDS011;10246;50.620;7.232;2022-10-22T01:54:46;8.57;;;4.93;;
20173;SDS011;10246;50.620;7.232;2022-10-22T01:57:21;7.00;;;4.50;;
20173;SDS011;10246;50.620;7.232;2022-10-22T01:59:56;7.83;;;5.03;;
20173;SDS011;10246;50.620;7.232;2022-10-22T02:02:29;7.07;;;4.80;;
20173;SDS011;10246;50.620;7.232;2022-10-22T02:05:04;6.60;;;4.80;;
20173;SDS011;10246;50.620;7.232;2022-10-22T02:07:36;8.10;;;4.93;;
20173;SDS011;10246;50.620;7.232;2022-10-22T02:10:07;9.30;;;4.80;;
20173;SDS011;10246;50.620;7.232;2022-10-22T02:12:35;6.43;;;4.90;;
20173;SDS011;10246;50.620;7.232;2022-10-22T02:15:05;8.20;;;5.20;;
20173;SDS011;10246;50.620;7.232;2022-10-22T02:17:34;6.07;;;4.73;;
20173;SDS011;10246;50.620;7.232;2022-10-22T02:20:04;6.37;;;4.70;;
20173;SDS011;10246;50.620;7.232;2022-10-22T02:22:33;5.50;;;4.57;;
20173;SDS011;10246;50.620;7.232;2022-10-22T02:25:00;7.47;;;4.23;;
20173;SDS011;10246;50.620;7.232;2022-10-22T02:27:28;6.57;;;4.90;;
20173;SDS011;10246;50.620;7.232;2022-10-22T02:29:59;7.00;;;4.87;;
20173;SDS011;10246;50.620;7.232;2022-10-22T02:32:31;7.40;;;4.53;;
20173;SDS011;10246;50.620;7.232;2022-10-22T02:35:00;7.73;;;4.63;;
20173;SDS011;10246;50.620;7.232;2022-10-22T02:37:28;5.90;;;4.47;;
20173;SDS011;10246;50.620;7.232;2022-10-22T02:39:55;9.43;;;4.47;;
20173;SDS011;10246;50.620;7.232;2022-10-22T02:42:23;7.13;;;4.60;;
20173;SDS011;10246;50.620;7.232;2022-10-22T02:44:50;6.70;;;4.90;;
20173;SDS011;10246;50.620;7.232;2022-10-22T02:47:17;10.80;;;4.60;;
20173;SDS011;10246;50.620;7.232;2022-10-22T02:49:45;8.07;;;4.27;;
20173;SDS011;10246;50.620;7.232;2022-10-22T02:52:12;5.73;;;4.30;;
20173;SDS011;10246;50.620;7.232;2022-10-22T02:54:38;6.73;;;4.20;;
20173;SDS011;10246;50.620;7.232;2022-10-22T02:57:05;8.97;;;4.83;;
20173;SDS011;10246;50.620;7.232;2022-10-22T02:59:32;8.17;;;4.87;;
20173;SDS011;10246;50.620;7.232;2022-10-22T03:01:59;7.17;;;4.40;;
20173;SDS011;10246;50.620;7.232;2022-10-22T03:04:25;7.97;;;5.13;;
20173;SDS011;10246;50.620;7.232;2022-10-22T03:06:54;4.83;;;3.93;;
20173;SDS011;10246;50.620;7.232;2022-10-22T03:09:20;5.17;;;4.40;;
20173;SDS011;10246;50.620;7.232;2022-10-22T03:11:47;7.60;;;4.90;;
20173;SDS011;10246;50.620;7.232;2022-10-22T03:14:14;5.30;;;4.57;;
20173;SDS011;10246;50.620;7.232;2022-10-22T03:16:41;4.77;;;4.23;;
20173;SDS011;10246;50.620;7.232;2022-10-22T03:19:07;8.13;;;4.93;;
20173;SDS011;10246;50.620;7.232;2022-10-22T03:21:35;8.07;;;4.90;;
20173;SDS011;10246;50.620;7.232;2022-10-22T03:24:08;5.97;;;4.80;;
20173;SDS011;10246;50.620;7.232;2022-10-22T03:26:38;7.17;;;4.70;;
20173;SDS011;10246;50.620;7.232;2022-10-22T03:29:06;5.33;;;4.37;;
20173;SDS011;10246;50.620;7.232;2022-10-22T03:31:34;8.17;;;4.67;;
20173;SDS011;10246;50.620;7.232;2022-10-22T03:34:01;5.57;;;4.60;;
20173;SDS011;10246;50.620;7.232;2022-10-22T03:36:28;6.10;;;4.87;;
20173;SDS011;10246;50.620;7.232;2022-10-22T03:38:55;7.30;;;4.90;;
20173;SDS011;10246;50.620;7.232;2022-10-22T03:41:24;5.97;;;4.80;;
20173;SDS011;10246;50.620;7.232;2022-10-22T03:43:51;7.90;;;4.80;;
20173;SDS011;10246;50.620;7.232;2022-10-22T03:46:18;6.70;;;4.57;;
20173;SDS011;10246;50.620;7.232;2022-10-22T03:48:44;6.00;;;4.83;;
20173;SDS011;10246;50.620;7.232;2022-10-22T03:51:11;7.07;;;4.80;;
20173;SDS011;10246;50.620;7.232;2022-10-22T03:53:38;6.10;;;4.80;;
20173;SDS011;10246;50.620;7.232;2022-10-22T03:56:06;7.57;;;4.87;;
20173;SDS011;10246;50.620;7.232;2022-10-22T03:58:35;6.37;;;5.00;;
20173;SDS011;10246;50.620;7.232;2022-10-22T04:01:03;10.50;;;5.33;;
20173;SDS011;10246;50.620;7.232;2022-10-22T04:03:31;6.83;;;4.80;;
20173;SDS011;10246;50.620;7.232;2022-10-22T04:05:59;6.73;;;5.37;;
20173;SDS011;10246;50.620;7.232;2022-10-22T04:08:27;7.70;;;5.67;;
20173;SDS011;10246;50.620;7.232;2022-10-22T04:10:53;10.37;;;5.57;;
20173;SDS011;10246;50.620;7.232;2022-10-22T04:13:20;11.63;;;6.23;;
20173;SDS011;10246;50.620;7.232;2022-10-22T04:15:48;10.10;;;5.37;;
20173;SDS011;10246;50.620;7.232;2022-10-22T04:18:15;10.00;;;5.13;;
20173;SDS011;10246;50.620;7.232;2022-10-22T04:20:42;7.13;;;5.27;;
20173;SDS011;10246;50.620;7.232;2022-10-22T04:23:09;8.83;;;4.87;;
20173;SDS011;10246;50.620;7.232;2022-10-22T04:25:36;7.37;;;4.83;;
20173;SDS011;10246;50.620;7.232;2022-10-22T04:28:05;5.87;;;5.10;;
20173;SDS011;10246;50.620;7.232;2022-10-22T04:30:32;9.20;;;5.07;;
20173;SDS011;10246;50.620;7.232;2022-10-22T04:33:00;7.57;;;5.70;;
20173;SDS011;10246;50.620;7.232;2022-10-22T04:35:28;6.83;;;5.03;;
20173;SDS011;10246;50.620;7.232;2022-10-22T04:37:55;10.03;;;4.97;;
20173;SDS011;10246;50.620;7.232;2022-10-22T04:40:21;7.30;;;5.40;;
20173;SDS011;10246;50.620;7.232;2022-10-22T04:42:48;5.80;;;4.90;;
20173;SDS011;10246;50.620;7.232;2022-10-22T04:45:15;7.20;;;5.03;;
20173;SDS011;10246;50.620;7.232;2022-10-22T04:47:41;7.47;;;5.30;;
20173;SDS011;10246;50.620;7.232;2022-10-22T04:50:09;9.53;;;5.77;;
20173;SDS011;10246;50.620;7.232;2022-10-22T04:52:36;6.53;;;5.27;;
20173;SDS011;10246;50.620;7.232;2022-10-22T04:55:03;8.73;;;5.13;;
20173;SDS011;10246;50.620;7.232;2022-10-22T04:57:30;9.03;;;4.70;;
20173;SDS011;10246;50.620;7.232;2022-10-22T04:59:57;5.77;;;5.07;;
20173;SDS011;10246;50.620;7.232;2022-10-22T05:02:23;10.83;;;5.97;;
20173;SDS011;10246;50.620;7.232;2022-10-22T05:04:50;9.57;;;5.93;;
20173;SDS011;10246;50.620;7.232;2022-10-22T05:07:18;13.83;;;5.80;;
20173;SDS011;10246;50.620;7.232;2022-10-22T05:09:45;8.07;;;5.47;;
20173;SDS011;10246;50.620;7.232;2022-10-22T05:12:12;6.63;;;5.40;;
20173;SDS011;10246;50.620;7.232;2022-10-22T05:14:38;8.53;;;5.83;;
20173;SDS011;10246;50.620;7.232;2022-10-22T05:17:05;6.83;;;5.60;;
20173;SDS011;10246;50.620;7.232;2022-10-22T05:19:32;9.10;;;6.23;;
20173;SDS011;10246;50.620;7.232;2022-10-22T05:21:59;8.93;;;5.93;;
20173;SDS011;10246;50.620;7.232;2022-10-22T05:24:29;8.73;;;5.97;;
20173;SDS011;10246;50.620;7.232;2022-10-22T05:26:57;9.17;;;6.20;;
20173;SDS011;10246;50.620;7.232;2022-10-22T05:29:25;10.60;;;6.37;;
20173;SDS011;10246;50.620;7.232;2022-10-22T05:31:52;7.97;;;5.67;;
20173;SDS011;10246;50.620;7.232;2022-10-22T05:34:19;8.73;;;5.57;;
20173;SDS011;10246;50.620;7.232;2022-10-22T05:36:46;8.37;;;5.50;;
20173;SDS011;10246;50.620;7.232;2022-10-22T05:39:12;6.90;;;5.70;;
20173;SDS011;10246;50.620;7.232;2022-10-22T05:41:40;12.03;;;6.10;;
20173;SDS011;10246;50.620;7.232;2022-10-22T05:44:09;7.13;;;5.73;;
20173;SDS011;10246;50.620;7.232;2022-10-22T05:46:37;8.97;;;5.70;;
20173;SDS011;10246;50.620;7.232;2022-10-22T05:49:05;11.97;;;5.33;;
20173;SDS011;10246;50.620;7.232;2022-10-22T05:51:33;11.97;;;6.00;;
20173;SDS011;10246;50.620;7.232;2022-10-22T05:54:02;9.67;;;5.03;;
20173;SDS011;10246;50.620;7.232;2022-10-22T05:56:31;6.10;;;5.23;;
20173;SDS011;10246;50.620;7.232;2022-10-22T05:59:00;8.80;;;6.20;;
20173;SDS011;10246;50.620;7.232;2022-10-22T06:01:28;8.27;;;6.17;;
20173;SDS011;10246;50.620;7.232;2022-10-22T06:03:56;8.47;;;6.10;;
20173;SDS011;10246;50.620;7.232;2022-10-22T06:06:26;8.67;;;6.07;;
20173;SDS011;10246;50.620;7.232;2022-10-22T06:08:55;8.43;;;5.53;;
20173;SDS011;10246;50.620;7.232;2022-10-22T06:11:26;6.87;;;5.23;;
20173;SDS011;10246;50.620;7.232;2022-10-22T06:13:52;8.80;;;5.00;;
20173;SDS011;10246;50.620;7.232;2022-10-22T06:16:20;9.93;;;5.40;;
20173;SDS011;10246;50.620;7.232;2022-10-22T06:18:47;7.77;;;4.97;;
20173;SDS011;10246;50.620;7.232;2022-10-22T06:21:14;7.20;;;4.80;;
20173;SDS011;10246;50.620;7.232;2022-10-22T06:23:41;6.37;;;5.13;;
20173;SDS011;10246;50.620;7.232;2022-10-22T06:26:09;13.03;;;5.00;;
20173;SDS011;10246;50.620;7.232;2022-10-22T06:28:36;10.00;;;5.43;;
20173;SDS011;10246;50.620;7.232;2022-10-22T06:31:04;15.43;;;6.23;;
20173;SDS011;10246;50.620;7.232;2022-10-22T06:33:32;7.30;;;5.90;;
20173;SDS011;10246;50.620;7.232;2022-10-22T06:36:06;6.47;;;5.30;;
20173;SDS011;10246;50.620;7.232;2022-10-22T06:38:36;7.40;;;5.57;;
20173;SDS011;10246;50.620;7.232;2022-10-22T06:41:04;5.87;;;4.80;;
20173;SDS011;10246;50.620;7.232;2022-10-22T06:43:32;10.77;;;5.23;;
20173;SDS011;10246;50.620;7.232;2022-10-22T06:45:59;9.70;;;5.40;;
20173;SDS011;10246;50.620;7.232;2022-10-22T06:48:26;6.30;;;5.10;;
20173;SDS011;10246;50.620;7.232;2022-10-22T06:50:54;10.20;;;5.73;;
20173;SDS011;10246;50.620;7.232;2022-10-22T06:53:21;8.60;;;5.30;;
20173;SDS011;10246;50.620;7.232;2022-10-22T06:55:48;10.50;;;6.37;;
20173;SDS011;10246;50.620;7.232;2022-10-22T06:58:15;9.03;;;6.23;;
20173;SDS011;10246;50.620;7.232;2022-10-22T07:00:42;7.60;;;5.93;;
20173;SDS011;10246;50.620;7.232;2022-10-22T07:03:10;7.73;;;5.83;;
20173;SDS011;10246;50.620;7.232;2022-10-22T07:05:38;6.63;;;5.20;;
20173;SDS011;10246;50.620;7.232;2022-10-22T07:08:06;11.70;;;5.80;;
20173;SDS011;10246;50.620;7.232;2022-10-22T07:10:33;8.20;;;5.23;;
20173;SDS011;10246;50.620;7.232;2022-10-22T07:13:00;10.20;;;5.77;;
20173;SDS011;10246;50.620;7.232;2022-10-22T07:15:26;9.40;;;6.20;;
20173;SDS011;10246;50.620;7.232;2022-10-22T07:17:53;9.60;;;6.23;;
20173;SDS011;10246;50.620;7.232;2022-10-22T07:20:20;9.43;;;6.83;;
20173;SDS011;10246;50.620;7.232;2022-10-22T07:22:47;10.90;;;7.27;;
20173;SDS011;10246;50.620;7.232;2022-10-22T07:25:15;13.43;;;7.77;;
20173;SDS011;10246;50.620;7.232;2022-10-22T07:27:41;11.17;;;7.67;;
20173;SDS011;10246;50.620;7.232;2022-10-22T07:30:08;8.77;;;7.37;;
20173;SDS011;10246;50.620;7.232;2022-10-22T07:32:36;9.37;;;7.33;;
20173;SDS011;10246;50.620;7.232;2022-10-22T07:35:02;10.80;;;7.47;;
20173;SDS011;10246;50.620;7.232;2022-10-22T07:37:30;10.80;;;7.30;;
20173;SDS011;10246;50.620;7.232;2022-10-22T07:39:56;15.27;;;8.23;;
20173;SDS011;10246;50.620;7.232;2022-10-22T07:42:24;9.83;;;6.97;;
20173;SDS011;10246;50.620;7.232;2022-10-22T07:44:51;13.47;;;7.37;;
20173;SDS011;10246;50.620;7.232;2022-10-22T07:47:18;8.77;;;6.57;;
20173;SDS011;10246;50.620;7.232;2022-10-22T07:49:44;8.93;;;5.70;;
20173;SDS011;10246;50.620;7.232;2022-10-22T07:52:11;7.00;;;5.47;;
20173;SDS011;10246;50.620;7.232;2022-10-22T07:54:38;10.90;;;5.27;;
20173;SDS011;10246;50.620;7.232;2022-10-22T07:57:05;7.23;;;5.30;;
20173;SDS011;10246;50.620;7.232;2022-10-22T07:59:33;8.43;;;4.47;;
20173;SDS011;10246;50.620;7.232;2022-10-22T08:01:59;9.37;;;5.87;;
20173;SDS011;10246;50.620;7.232;2022-10-22T08:04:26;9.53;;;6.00;;
20173;SDS011;10246;50.620;7.232;2022-10-22T08:06:53;6.27;;;4.00;;
20173;SDS011;10246;50.620;7.232;2022-10-22T08:09:19;5.87;;;3.70;;
20173;SDS011;10246;50.620;7.232;2022-10-22T08:11:46;7.37;;;3.70;;
20173;SDS011;10246;50.620;7.232;2022-10-22T08:14:13;11.63;;;3.90;;
20173;SDS011;10246;50.620;7.232;2022-10-22T08:16:41;5.97;;;3.53;;
20173;SDS011;10246;50.620;7.232;2022-10-22T08:19:08;6.60;;;4.10;;
20173;SDS011;10246;50.620;7.232;2022-10-22T08:21:35;7.20;;;4.00;;
20173;SDS011;10246;50.620;7.232;2022-10-22T08:24:02;6.13;;;4.33;;
20173;SDS011;10246;50.620;7.232;2022-10-22T08:26:29;6.20;;;4.73;;
20173;SDS011;10246;50.620;7.232;2022-10-22T08:28:55;7.37;;;5.30;;
20173;SDS011;10246;50.620;7.232;2022-10-22T08:31:22;11.60;;;5.30;;
20173;SDS011;10246;50.620;7.232;2022-10-22T08:33:50;9.60;;;5.57;;
20173;SDS011;10246;50.620;7.232;2022-10-22T08:36:17;7.20;;;5.40;;
20173;SDS011;10246;50.620;7.232;2022-10-22T08:38:44;8.27;;;5.23;;
20173;SDS011;10246;50.620;7.232;2022-10-22T08:41:11;8.07;;;5.50;;
20173;SDS011;10246;50.620;7.232;2022-10-22T08:43:52;7.27;;;4.77;;
20173;SDS011;10246;50.620;7.232;2022-10-22T08:46:42;5.50;;;3.67;;
20173;SDS011;10246;50.620;7.232;2022-10-22T08:49:19;6.40;;;3.20;;
20173;SDS011;10246;50.620;7.232;2022-10-22T08:51:47;7.07;;;2.73;;
20173;SDS011;10246;50.620;7.232;2022-10-22T08:54:21;7.73;;;3.20;;
20173;SDS011;10246;50.620;7.232;2022-10-22T08:56:58;5.90;;;2.33;;
20173;SDS011;10246;50.620;7.232;2022-10-22T08:59:38;4.93;;;2.90;;
20173;SDS011;10246;50.620;7.232;2022-10-22T09:02:14;9.17;;;2.53;;
20173;SDS011;10246;50.620;7.232;2022-10-22T09:04:52;4.90;;;2.50;;
20173;SDS011;10246;50.620;7.232;2022-10-22T09:07:27;6.17;;;2.57;;
20173;SDS011;10246;50.620;7.232;2022-10-22T09:09:54;4.43;;;2.30;;
20173;SDS011;10246;50.620;7.232;2022-10-22T09:12:24;6.83;;;2.40;;
20173;SDS011;10246;50.620;7.232;2022-10-22T09:14:53;4.57;;;2.13;;
20173;SDS011;10246;50.620;7.232;2022-10-22T09:17:20;3.57;;;1.50;;
20173;SDS011;10246;50.620;7.232;2022-10-22T09:20:01;4.20;;;1.63;;
20173;SDS011;10246;50.620;7.232;2022-10-22T09:22:33;5.97;;;1.57;;
20173;SDS011;10246;50.620;7.232;2022-10-22T09:25:10;2.50;;;1.50;;
20173;SDS011;10246;50.620;7.232;2022-10-22T09:27:44;2.90;;;1.40;;
20173;SDS011;10246;50.620;7.232;2022-10-22T09:30:12;8.97;;;1.70;;
20173;SDS011;10246;50.620;7.232;2022-10-22T09:32:41;4.20;;;1.43;;
20173;SDS011;10246;50.620;7.232;2022-10-22T09:35:10;7.37;;;1.53;;
20173;SDS011;10246;50.620;7.232;2022-10-22T09:37:45;5.23;;;1.60;;
20173;SDS011;10246;50.620;7.232;2022-10-22T09:40:13;6.70;;;1.57;;
20173;SDS011;10246;50.620;7.232;2022-10-22T09:42:41;4.20;;;1.40;;
20173;SDS011;10246;50.620;7.232;2022-10-22T09:45:14;3.17;;;1.60;;
20173;SDS011;10246;50.620;7.232;2022-10-22T09:47:44;4.33;;;1.73;;
20173;SDS011;10246;50.620;7.232;2022-10-22T09:50:24;5.33;;;1.30;;
20173;SDS011;10246;50.620;7.232;2022-10-22T09:52:53;2.37;;;1.13;;
20173;SDS011;10246;50.620;7.232;2022-10-22T09:55:25;6.40;;;1.63;;
20173;SDS011;10246;50.620;7.232;2022-10-22T09:57:54;4.57;;;2.50;;
20173;SDS011;10246;50.620;7.232;2022-10-22T10:00:23;7.20;;;1.50;;
20173;SDS011;10246;50.620;7.232;2022-10-22T10:02:55;8.23;;;1.80;;
20173;SDS011;10246;50.620;7.232;2022-10-22T10:05:28;4.60;;;1.47;;
20173;SDS011;10246;50.620;7.232;2022-10-22T10:07:56;7.70;;;1.23;;
20173;SDS011;10246;50.620;7.232;2022-10-22T10:10:26;3.70;;;1.60;;
20173;SDS011;10246;50.620;7.232;2022-10-22T10:13:00;4.57;;;1.20;;
20173;SDS011;10246;50.620;7.232;2022-10-22T10:15:37;3.03;;;1.37;;
20173;SDS011;10246;50.620;7.232;2022-10-22T10:18:11;7.57;;;1.50;;
20173;SDS011;10246;50.620;7.232;2022-10-22T10:20:53;4.80;;;1.47;;
20173;SDS011;10246;50.620;7.232;2022-10-22T10:23:29;3.67;;;1.97;;
20173;SDS011;10246;50.620;7.232;2022-10-22T10:26:02;6.30;;;1.80;;
20173;SDS011;10246;50.620;7.232;2022-10-22T10:28:36;5.00;;;1.40;;
20173;SDS011;10246;50.620;7.232;2022-10-22T10:31:14;2.10;;;0.77;;
20173;SDS011;10246;50.620;7.232;2022-10-22T10:33:46;4.30;;;1.27;;
20173;SDS011;10246;50.620;7.232;2022-10-22T10:36:24;4.73;;;1.13;;
20173;SDS011;10246;50.620;7.232;2022-10-22T10:38:59;2.73;;;0.93;;
20173;SDS011;10246;50.620;7.232;2022-10-22T10:41:32;4.83;;;1.00;;
20173;SDS011;10246;50.620;7.232;2022-10-22T10:47:11;2.43;;;0.90;;
20173;SDS011;10246;50.620;7.232;2022-10-22T10:49:51;5.73;;;1.30;;
20173;SDS011;10246;50.620;7.232;2022-10-22T10:52:26;4.97;;;1.50;;
20173;SDS011;10246;50.620;7.232;2022-10-22T10:55:01;5.20;;;1.20;;
20173;SDS011;10246;50.620;7.232;2022-10-22T10:57:38;5.37;;;1.40;;
20173;SDS011;10246;50.620;7.232;2022-10-22T11:00:13;2.03;;;1.00;;
20173;SDS011;10246;50.620;7.232;2022-10-22T11:02:46;6.87;;;1.00;;
20173;SDS011;10246;50.620;7.232;2022-10-22T11:05:25;1.63;;;0.90;;
20173;SDS011;10246;50.620;7.232;2022-10-22T11:08:00;3.53;;;1.00;;
20173;SDS011;10246;50.620;7.232;2022-10-22T11:10:32;3.23;;;1.13;;
20173;SDS011;10246;50.620;7.232;2022-10-22T11:13:04;2.90;;;0.80;;
20173;SDS011;10246;50.620;7.232;2022-10-22T11:15:38;2.57;;;1.17;;
20173;SDS011;10246;50.620;7.232;2022-10-22T11:18:11;3.83;;;0.90;;
20173;SDS011;10246;50.620;7.232;2022-10-22T11:20:47;4.47;;;1.77;;
20173;SDS011;10246;50.620;7.232;2022-10-22T11:23:24;2.57;;;1.03;;
20173;SDS011;10246;50.620;7.232;2022-10-22T11:25:57;4.83;;;0.90;;
20173;SDS011;10246;50.620;7.232;2022-10-22T11:28:26;2.80;;;0.83;;
20173;SDS011;10246;50.620;7.232;2022-10-22T11:30:58;2.90;;;0.93;;
20173;SDS011;10246;50.620;7.232;2022-10-22T11:33:31;3.47;;;0.83;;
20173;SDS011;10246;50.620;7.232;2022-10-22T11:36:04;6.43;;;0.90;;
20173;SDS011;10246;50.620;7.232;2022-10-22T11:38:34;1.60;;;0.60;;
20173;SDS011;10246;50.620;7.232;2022-10-22T11:41:04;2.63;;;0.97;;
20173;SDS011;10246;50.620;7.232;2022-10-22T11:43:33;4.80;;;0.77;;
20173;SDS011;10246;50.620;7.232;2022-10-22T11:46:25;3.67;;;1.80;;
20173;SDS011;10246;50.620;7.232;2022-10-22T11:49:17;1.77;;;1.40;;
20173;SDS011;10246;50.620;7.232;2022-10-22T11:51:49;3.13;;;1.70;;
20173;SDS011;10246;50.620;7.232;2022-10-22T11:54:29;7.50;;;1.10;;
20173;SDS011;10246;50.620;7.232;2022-10-22T11:57:17;5.17;;;2.00;;
20173;SDS011;10246;50.620;7.232;2022-10-22T11:59:47;4.50;;;2.30;;
20173;SDS011;10246;50.620;7.232;2022-10-22T12:08:01;7.73;;;4.00;;
20173;SDS011;10246;50.620;7.232;2022-10-22T12:10:50;8.93;;;4.10;;
20173;SDS011;10246;50.620;7.232;2022-10-22T12:13:24;5.20;;;1.60;;
20173;SDS011;10246;50.620;7.232;2022-10-22T12:15:53;4.60;;;2.07;;
20173;SDS011;10246;50.620;7.232;2022-10-22T12:18:23;2.83;;;2.07;;
20173;SDS011;10246;50.620;7.232;2022-10-22T12:20:52;1.60;;;1.10;;
20173;SDS011;10246;50.620;7.232;2022-10-22T12:23:20;2.50;;;0.83;;
20173;SDS011;10246;50.620;7.232;2022-10-22T12:25:55;6.30;;;1.10;;
20173;SDS011;10246;50.620;7.232;2022-10-22T12:28:22;1.50;;;0.60;;
20173;SDS011;10246;50.620;7.232;2022-10-22T12:30:48;3.00;;;1.00;;
20173;SDS011;10246;50.620;7.232;2022-10-22T12:33:17;2.17;;;0.80;;
20173;SDS011;10246;50.620;7.232;2022-10-22T12:35:46;3.10;;;1.10;;
20173;SDS011;10246;50.620;7.232;2022-10-22T12:38:16;3.33;;;0.97;;
20173;SDS011;10246;50.620;7.232;2022-10-22T12:40:44;2.23;;;0.80;;
20173;SDS011;10246;50.620;7.232;2022-10-22T12:43:13;2.27;;;0.77;;
20173;SDS011;10246;50.620;7.232;2022-10-22T12:45:41;1.80;;;0.77;;
20173;SDS011;10246;50.620;7.232;2022-10-22T12:48:13;3.20;;;1.67;;
20173;SDS011;10246;50.620;7.232;2022-10-22T12:50:42;8.20;;;2.90;;
20173;SDS011;10246;50.620;7.232;2022-10-22T12:53:12;6.17;;;2.20;;
20173;SDS011;10246;50.620;7.232;2022-10-22T12:55:42;3.00;;;1.20;;
20173;SDS011;10246;50.620;7.232;2022-10-22T12:58:17;6.17;;;1.40;;
20173;SDS011;10246;50.620;7.232;2022-10-22T13:00:46;5.70;;;2.40;;
20173;SDS011;10246;50.620;7.232;2022-10-22T13:03:22;5.63;;;2.33;;
20173;SDS011;10246;50.620;7.232;2022-10-22T13:05:52;6.43;;;1.80;;
20173;SDS011;10246;50.620;7.232;2022-10-22T13:08:20;3.27;;;1.60;;
20173;SDS011;10246;50.620;7.232;2022-10-22T13:10:48;1.73;;;1.10;;
20173;SDS011;10246;50.620;7.232;2022-10-22T13:13:31;2.57;;;1.03;;
20173;SDS011;10246;50.620;7.232;2022-10-22T13:16:12;3.40;;;1.50;;
20173;SDS011;10246;50.620;7.232;2022-10-22T13:18:40;5.30;;;1.50;;
20173;SDS011;10246;50.620;7.232;2022-10-22T13:21:25;2.07;;;1.00;;
20173;SDS011;10246;50.620;7.232;2022-10-22T13:23:55;1.80;;;0.70;;
20173;SDS011;10246;50.620;7.232;2022-10-22T13:26:24;2.17;;;0.80;;
20173;SDS011;10246;50.620;7.232;2022-10-22T13:28:58;3.37;;;0.90;;
20173;SDS011;10246;50.620;7.232;2022-10-22T13:31:27;1.70;;;0.73;;
20173;SDS011;10246;50.620;7.232;2022-10-22T13:33:58;5.73;;;0.90;;
20173;SDS011;10246;50.620;7.232;2022-10-22T13:36:27;6.03;;;0.83;;
20173;SDS011;10246;50.620;7.232;2022-10-22T13:38:54;1.80;;;0.60;;
20173;SDS011;10246;50.620;7.232;2022-10-22T13:41:22;3.40;;;0.73;;
20173;SDS011;10246;50.620;7.232;2022-10-22T13:43:49;1.53;;;0.77;;
20173;SDS011;10246;50.620;7.232;2022-10-22T13:46:18;4.20;;;0.87;;
20173;SDS011;10246;50.620;7.232;2022-10-22T13:48:46;3.23;;;0.80;;
20173;SDS011;10246;50.620;7.232;2022-10-22T13:51:17;5.23;;;0.90;;
20173;SDS011;10246;50.620;7.232;2022-10-22T13:53:46;8.87;;;0.80;;
20173;SDS011;10246;50.620;7.232;2022-10-22T13:56:15;1.70;;;0.57;;
20173;SDS011;10246;50.620;7.232;2022-10-22T13:58:43;5.90;;;1.10;;
20173;SDS011;10246;50.620;7.232;2022-10-22T14:01:15;5.20;;;1.20;;
20173;SDS011;10246;50.620;7.232;2022-10-22T14:03:46;9.33;;;1.30;;
20173;SDS011;10246;50.620;7.232;2022-10-22T14:06:14;3.03;;;0.80;;
20173;SDS011;10246;50.620;7.232;2022-10-22T14:08:42;2.60;;;0.80;;
20173;SDS011;10246;50.620;7.232;2022-10-22T14:11:11;4.43;;;0.90;;
20173;SDS011;10246;50.620;7.232;2022-10-22T14:13:38;7.37;;;1.00;;
20173;SDS011;10246;50.620;7.232;2022-10-22T14:16:06;3.23;;;1.23;;
20173;SDS011;10246;50.620;7.232;2022-10-22T14:18:38;4.47;;;1.30;;
20173;SDS011;10246;50.620;7.232;2022-10-22T14:21:06;3.80;;;1.20;;
20173;SDS011;10246;50.620;7.232;2022-10-22T14:23:32;2.73;;;1.10;;
20173;SDS011;10246;50.620;7.232;2022-10-22T14:26:01;3.30;;;1.00;;
20173;SDS011;10246;50.620;7.232;2022-10-22T14:28:28;2.50;;;0.90;;
20173;SDS011;10246;50.620;7.232;2022-10-22T14:30:55;3.47;;;1.00;;
20173;SDS011;10246;50.620;7.232;2022-10-22T14:33:23;3.30;;;0.70;;
20173;SDS011;10246;50.620;7.232;2022-10-22T14:35:53;3.63;;;1.20;;
20173;SDS011;10246;50.620;7.232;2022-10-22T14:38:20;1.40;;;0.73;;
20173;SDS011;10246;50.620;7.232;2022-10-22T14:40:47;2.80;;;0.80;;
20173;SDS011;10246;50.620;7.232;2022-10-22T14:43:18;2.77;;;0.97;;
20173;SDS011;10246;50.620;7.232;2022-10-22T14:45:47;4.57;;;0.97;;
20173;SDS011;10246;50.620;7.232;2022-10-22T14:48:14;4.77;;;1.17;;
20173;SDS011;10246;50.620;7.232;2022-10-22T14:50:41;2.90;;;0.70;;
20173;SDS011;10246;50.620;7.232;2022-10-22T14:53:10;5.13;;;0.80;;
20173;SDS011;10246;50.620;7.232;2022-10-22T14:55:37;5.07;;;0.90;;
20173;SDS011;10246;50.620;7.232;2022-10-22T14:58:04;4.17;;;1.20;;
20173;SDS011;10246;50.620;7.232;2022-10-22T15:00:31;5.37;;;0.73;;
20173;SDS011;10246;50.620;7.232;2022-10-22T15:03:00;4.10;;;0.90;;
20173;SDS011;10246;50.620;7.232;2022-10-22T15:05:27;3.27;;;1.00;;
20173;SDS011;10246;50.620;7.232;2022-10-22T15:07:54;3.47;;;1.00;;
20173;SDS011;10246;50.620;7.232;2022-10-22T15:10:24;2.30;;;0.80;;
20173;SDS011;10246;50.620;7.232;2022-10-22T15:12:51;5.40;;;1.03;;